Portada
METAR-TAF:

METAR-TAF

Aeropuertos :

Teherán, Irán

Aeropuerto Internacional de Mehrabad

latitud: 35-41N, longitud: 051-21E, altitud: 1204 m

Observación

El informe se hizo hace 18 minutos, a las 05:30 UTC
Viento 10 kt del oeste
Temperatura 31°C
Humedad 19%
Presión 1016 hPa
Visibilidad 10 km o más
sin nubes por debajo de 1500 m y sin presencia de cumulonimbus.

METAR: OIII 170530Z 26010KT CAVOK 31/05 Q1016 A3001 NOSIG

Hora: 10:18 (05:48 UTC)

Pronóstico

El informe se hizo hace 6 horas y 8 minutos, a las 23:40 UTC
Pronóstico válido del 17 a las 00 UTC al 18 a las 06 UTC
Viento 8 kt del este-sureste
Visibilidad 10 km o más
sin nubes por debajo de 1500 m y sin presencia de cumulonimbus.
Temporalmente
del 17 a las 12 UTC al 17 a las 15 UTC
Viento 16 kt del sur-sureste

TAF: OIII 162340Z 1700/1806 12004MPS CAVOK TEMPO 1712/1715 16008MPS

Observaciones y pronósticos meteorológicos de más de 4000 aeropuertos (mensajes METAR y TAF).

Los puntos amarillos y rojos representan las estaciones disponibles.

Ponga el ratón en el punto deseado para ver el nombre de la estación.

Haga clic para ver las observaciones y los pronósticos meteorológicos.

Para cambiar el mapa : haga clic en los botones verdes con una cruz de color negro para hacer un zoom, en el botón verde con un guión para alejar o en las flechas verdes para mapas adyacentes.


METAR-TAF: